Jonni Ritscher — A8JT7 — position and weather

sailwx.info

Track history (hours):
 
Tides and Currents Weather Stations Pressure Air Temp Water Temp Dewpoint Dewpoint Depression Visibility Wind Speed Wind Dir Waves Ship Positions

Jonni Ritscher

Last reported at 2015-Jul-07 03:07 UTC. Time now 2015-Jul-07 15:23 UTC.
Position N 35°54' W 007°34'.

Length 178 m; draft 9.9 m.

Type: Ship. MMSI: 636091136.

Date/timePositionNaut miles runAvg speedWind from/ knotsBaromVisibWave heightAir tempDewpointWater temp
2015-Jul-07 03:07N 35°54' W 007°34'611.1
2015-Jul-07 02:33N 35°54' W 007°42'1211.5
2015-Jul-07 01:30N 35°55' W 007°57'1111.8
2015-Jul-07 00:34N 35°55' W 008°11'1211.7
2015-Jul-06 23:34N 35°56' W 008°25'1211.6
2015-Jul-06 22:33N 35°56' W 008°39'1111.5
2015-Jul-06 21:33N 35°57' W 008°54'1111.2
2015-Jul-06 20:33N 35°57' W 009°07'1111.3
2015-Jul-06 19:33N 35°58' W 009°21'1111.4
2015-Jul-06 18:34N 35°59' W 009°35'1111.2
2015-Jul-06 17:33N 35°60' W 009°49'1111.3
2015-Jul-06 16:33N 36°01' W 010°03'1111.5
2015-Jul-06 15:33N 36°03' W 010°17'1211.5
2015-Jul-06 14:33N 36°06' W 010°31'1111.5
2015-Jul-06 13:33N 36°09' W 010°45'1111.5
2015-Jul-06 12:33N 36°12' W 010°58'1211.5
2015-Jul-06 11:33N 36°14' W 011°12'1212.1
2015-Jul-06 10:33N 36°18' W 011°27'1515.4
2015-Jul-06 09:33N 36°22' W 011°45'1515.5
2015-Jul-06 08:33N 36°25' W 012°04'1716.6
2015-Jul-06 07:33N 36°29' W 012°24'1413.8
2015-Jul-06 06:33N 36°33' W 012°41'8814.4
2015-Jul-06 00:27N 36°55' W 014°27'44115.1
2015-Jul-04 19:16N 37°28' W 023°39'1114.9
2015-Jul-04 18:33N 37°28' W 023°52'1515.2
2015-Jul-04 17:34N 37°29' W 024°11'1514.8
2015-Jul-04 16:34N 37°29' W 024°30'1515.2
2015-Jul-04 15:33N 37°30' W 024°49'1515.0
2015-Jul-04 14:34N 37°30' W 025°08'1515.0
2015-Jul-04 13:34N 37°30' W 025°27'1515.3
2015-Jul-04 12:34N 37°29' W 025°46'1515.4
2015-Jul-04 11:33N 37°29' W 026°05'1515.3
2015-Jul-04 10:33N 37°29' W 026°25'1515.3
2015-Jul-04 09:34N 37°28' W 026°44'1817.9
2015-Jul-04 08:34N 37°28' W 027°07'3115.2
2015-Jul-04 06:32N 37°27' W 027°45'1514.9
2015-Jul-04 05:33N 37°27' W 028°04'1515.3
2015-Jul-04 04:33N 37°27' W 028°23'1515.1
2015-Jul-04 03:33N 37°27' W 028°42'1515.1
2015-Jul-04 02:34N 37°27' W 029°01'1515.3
2015-Jul-04 01:33N 37°26' W 029°20'1615.0
2015-Jul-04 00:30N 37°26' W 029°40'1515.0
2015-Jul-03 23:31N 37°26' W 029°59'  
Track history (hours):
 
Tides and Currents Weather Stations Pressure Air Temp Water Temp Dewpoint Dewpoint Depression Visibility Wind Speed Wind Dir Waves Ship Positions

Jonni Ritscher

Last reported at 2015-Jul-07 03:07 UTC. Time now 2015-Jul-07 15:23 UTC.
Position N 35°54' W 007°34'.

Length 178 m; draft 9.9 m.

Type: Ship. MMSI: 636091136.

Date/timePositionNaut miles runAvg speedWind from/ knotsBaromVisibWave heightAir tempDewpointWater temp
2015-Jul-07 03:07N 35°54' W 007°34'611.1
2015-Jul-07 02:33N 35°54' W 007°42'1211.5
2015-Jul-07 01:30N 35°55' W 007°57'1111.8
2015-Jul-07 00:34N 35°55' W 008°11'1211.7
2015-Jul-06 23:34N 35°56' W 008°25'1211.6
2015-Jul-06 22:33N 35°56' W 008°39'1111.5
2015-Jul-06 21:33N 35°57' W 008°54'1111.2
2015-Jul-06 20:33N 35°57' W 009°07'1111.3
2015-Jul-06 19:33N 35°58' W 009°21'1111.4
2015-Jul-06 18:34N 35°59' W 009°35'1111.2
2015-Jul-06 17:33N 35°60' W 009°49'1111.3
2015-Jul-06 16:33N 36°01' W 010°03'1111.5
2015-Jul-06 15:33N 36°03' W 010°17'1211.5
2015-Jul-06 14:33N 36°06' W 010°31'1111.5
2015-Jul-06 13:33N 36°09' W 010°45'1111.5
2015-Jul-06 12:33N 36°12' W 010°58'1211.5
2015-Jul-06 11:33N 36°14' W 011°12'1212.1
2015-Jul-06 10:33N 36°18' W 011°27'1515.4
2015-Jul-06 09:33N 36°22' W 011°45'1515.5
2015-Jul-06 08:33N 36°25' W 012°04'1716.6
2015-Jul-06 07:33N 36°29' W 012°24'1413.8
2015-Jul-06 06:33N 36°33' W 012°41'8814.4
2015-Jul-06 00:27N 36°55' W 014°27'44115.1
2015-Jul-04 19:16N 37°28' W 023°39'1114.9
2015-Jul-04 18:33N 37°28' W 023°52'1515.2
2015-Jul-04 17:34N 37°29' W 024°11'1514.8
2015-Jul-04 16:34N 37°29' W 024°30'1515.2
2015-Jul-04 15:33N 37°30' W 024°49'1515.0
2015-Jul-04 14:34N 37°30' W 025°08'1515.0
2015-Jul-04 13:34N 37°30' W 025°27'1515.3
2015-Jul-04 12:34N 37°29' W 025°46'1515.4
2015-Jul-04 11:33N 37°29' W 026°05'1515.3
2015-Jul-04 10:33N 37°29' W 026°25'1515.3
2015-Jul-04 09:34N 37°28' W 026°44'1817.9
2015-Jul-04 08:34N 37°28' W 027°07'3115.2
2015-Jul-04 06:32N 37°27' W 027°45'1514.9
2015-Jul-04 05:33N 37°27' W 028°04'1515.3
2015-Jul-04 04:33N 37°27' W 028°23'1515.1
2015-Jul-04 03:33N 37°27' W 028°42'1515.1
2015-Jul-04 02:34N 37°27' W 029°01'1515.3
2015-Jul-04 01:33N 37°26' W 029°20'1615.0
2015-Jul-04 00:30N 37°26' W 029°40'1515.0
2015-Jul-03 23:31N 37°26' W 029°59'  

Dump ship's entire track history